Time;durP1;ratioP1;P1;durP2;ratioP2;P2;SDS_P1;SDS_P2;PMS_P1;PMS_P2;Temp;Humidity;BMP_temperature;BMP_pressure;BME280_temperature;BME280_humidity;BME280_pressure;Samples;Min_cycle;Max_cycle;Signal;HPM_P1;HPM_P2
2024/04/09 00:00:20;;;;;;;9.38;4.80;;;;;;;;;;5382818;26;20016;-55
2024/04/09 00:02:46;;;;;;;8.95;4.80;;;;;;;;;;5437574;26;20014;-57
2024/04/09 00:05:11;;;;;;;12.75;6.35;;;;;;;;;;5440097;26;20084;-58
2024/04/09 00:07:38;;;;;;;10.68;4.93;;;;;;;;;;5396722;26;20015;-59
2024/04/09 00:10:06;;;;;;;7.85;4.93;;;;;;;;;;5396366;26;20374;-56
2024/04/09 00:12:33;;;;;;;11.07;4.90;;;;;;;;;;5429821;26;20003;-56
2024/04/09 00:14:59;;;;;;;9.50;4.70;;;;;;;;;;5435165;26;20011;-57
2024/04/09 00:17:34;;;;;;;8.80;4.22;;;;;;;;;;5436706;26;20125;-61
2024/04/09 00:20:00;;;;;;;7.03;3.75;;;;;;;;;;5441615;26;20006;-59
2024/04/09 00:22:27;;;;;;;9.25;3.83;;;;;;;;;;5443334;26;20025;-56
2024/04/09 00:24:53;;;;;;;6.82;3.75;;;;;;;;;;5417564;26;20025;-58
2024/04/09 00:27:19;;;;;;;10.55;4.63;;;;;;;;;;5440587;26;20017;-58
2024/04/09 00:29:45;;;;;;;9.93;4.35;;;;;;;;;;5433098;26;20021;-59
2024/04/09 00:32:10;;;;;;;10.13;4.65;;;;;;;;;;5442740;26;20011;-57
2024/04/09 00:34:36;;;;;;;11.80;5.10;;;;;;;;;;5410017;26;20018;-59
2024/04/09 00:37:04;;;;;;;10.82;4.53;;;;;;;;;;5428008;26;20447;-59
2024/04/09 00:39:33;;;;;;;10.60;4.20;;;;;;;;;;5398212;26;20517;-60
2024/04/09 00:42:02;;;;;;;9.93;4.15;;;;;;;;;;5441397;26;20006;-58
2024/04/09 00:44:29;;;;;;;7.05;4.25;;;;;;;;;;5438253;26;20079;-56
2024/04/09 00:46:56;;;;;;;9.02;4.03;;;;;;;;;;5438505;26;20002;-53
2024/04/09 00:49:22;;;;;;;7.55;4.18;;;;;;;;;;5441864;26;20014;-58
2024/04/09 00:51:49;;;;;;;13.73;4.53;;;;;;;;;;5376265;26;20394;-56
2024/04/09 00:54:17;;;;;;;10.70;4.50;;;;;;;;;;5414382;26;20371;-59
2024/04/09 00:56:43;;;;;;;11.27;5.25;;;;;;;;;;5394224;26;20079;-58
2024/04/09 00:59:12;;;;;;;10.25;4.50;;;;;;;;;;5429209;26;20112;-59
2024/04/09 01:01:40;;;;;;;;;;;;;;;;;;5413096;26;20505;-58
2024/04/09 01:04:05;;;;;;;9.45;3.22;;;;;;;;;;5442991;26;19989;-59
2024/04/09 01:06:31;;;;;;;6.72;3.10;;;;;;;;;;5433409;26;20014;-58
2024/04/09 01:08:58;;;;;;;5.57;3.20;;;;;;;;;;5380260;26;20015;-56
2024/04/09 01:11:24;;;;;;;4.20;2.65;;;;;;;;;;5395828;26;20007;-61
2024/04/09 01:13:50;;;;;;;6.03;2.45;;;;;;;;;;5417595;26;20008;-58
2024/04/09 01:16:16;;;;;;;5.63;2.90;;;;;;;;;;5373176;26;20099;-59
2024/04/09 01:18:41;;;;;;;5.45;2.83;;;;;;;;;;5421844;26;20056;-59
2024/04/09 01:21:08;;;;;;;6.53;2.65;;;;;;;;;;5434691;26;20051;-59
2024/04/09 01:23:33;;;;;;;4.95;3.00;;;;;;;;;;5421514;26;20110;-59
2024/04/09 01:25:59;;;;;;;5.38;2.60;;;;;;;;;;5414567;26;20487;-57
2024/04/09 01:28:25;;;;;;;6.28;2.88;;;;;;;;;;5413799;26;20011;-59
2024/04/09 01:30:52;;;;;;;5.85;3.13;;;;;;;;;;5431870;26;20014;-59
2024/04/09 01:33:17;;;;;;;5.15;3.05;;;;;;;;;;5424072;26;20011;-59
2024/04/09 01:35:44;;;;;;;4.88;3.03;;;;;;;;;;5408375;26;20018;-58
2024/04/09 01:38:10;;;;;;;8.35;2.92;;;;;;;;;;5409834;26;20076;-60
2024/04/09 01:40:36;;;;;;;6.18;3.00;;;;;;;;;;5442549;26;20015;-57
2024/04/09 01:43:01;;;;;;;4.75;2.85;;;;;;;;;;5441977;26;20508;-60
2024/04/09 01:45:27;;;;;;;7.07;3.10;;;;;;;;;;5380897;26;20014;-57
2024/04/09 01:47:52;;;;;;;4.93;3.00;;;;;;;;;;5409419;26;20015;-55
2024/04/09 01:50:18;;;;;;;5.45;3.42;;;;;;;;;;5438686;26;20289;-60
2024/04/09 01:52:44;;;;;;;6.55;2.95;;;;;;;;;;5434383;26;20006;-59
2024/04/09 01:55:10;;;;;;;11.45;3.17;;;;;;;;;;5445501;26;20371;-59
2024/04/09 01:57:35;;;;;;;6.47;3.30;;;;;;;;;;5419282;26;20110;-56
2024/04/09 02:00:11;;;;;;;10.30;3.30;;;;;;;;;;5394004;26;20440;-59
2024/04/09 02:02:40;;;;;;;7.47;3.67;;;;;;;;;;5432313;26;20101;-58
2024/04/09 02:05:07;;;;;;;4.47;3.22;;;;;;;;;;5411776;26;20380;-56
2024/04/09 02:07:33;;;;;;;6.93;3.08;;;;;;;;;;5442870;26;20011;-57
2024/04/09 02:10:00;;;;;;;5.90;4.07;;;;;;;;;;5355248;26;20008;-57
2024/04/09 02:12:25;;;;;;;9.43;3.70;;;;;;;;;;5403957;26;20359;-57
2024/04/09 02:14:51;;;;;;;8.43;3.50;;;;;;;;;;5438490;26;20398;-59
2024/04/09 02:17:17;;;;;;;9.35;3.90;;;;;;;;;;5442554;26;20022;-60
2024/04/09 02:19:43;;;;;;;6.53;3.63;;;;;;;;;;5441289;26;20006;-58
2024/04/09 02:22:09;;;;;;;7.00;4.10;;;;;;;;;;5440215;26;20018;-57
2024/04/09 02:24:35;;;;;;;6.85;4.20;;;;;;;;;;5416169;26;20567;-60
2024/04/09 02:27:03;;;;;;;8.30;3.65;;;;;;;;;;5442124;26;20079;-57
2024/04/09 02:29:29;;;;;;;9.23;3.80;;;;;;;;;;5436395;26;20014;-56
2024/04/09 02:31:55;;;;;;;7.78;3.75;;;;;;;;;;5430217;26;20593;-56
2024/04/09 02:34:24;;;;;;;13.13;4.18;;;;;;;;;;5443220;26;20018;-60
2024/04/09 02:36:50;;;;;;;8.63;4.00;;;;;;;;;;5445233;26;20873;-56
2024/04/09 02:39:16;;;;;;;9.52;3.45;;;;;;;;;;5441652;26;20002;-60
2024/04/09 02:41:41;;;;;;;6.57;3.80;;;;;;;;;;5430987;26;20022;-59
2024/04/09 02:44:07;;;;;;;9.15;4.25;;;;;;;;;;5437588;26;20010;-61
2024/04/09 02:46:33;;;;;;;6.25;3.90;;;;;;;;;;5438318;26;20600;-61
2024/04/09 02:49:00;;;;;;;9.27;4.40;;;;;;;;;;5383279;26;20466;-59
2024/04/09 02:51:26;;;;;;;7.97;3.70;;;;;;;;;;5410931;26;20021;-60
2024/04/09 02:53:51;;;;;;;6.95;3.97;;;;;;;;;;5433815;26;20762;-60
2024/04/09 02:56:17;;;;;;;7.28;3.80;;;;;;;;;;5439109;26;20145;-60
2024/04/09 02:58:43;;;;;;;7.32;4.50;;;;;;;;;;5434922;26;20017;-61
2024/04/09 03:01:09;;;;;;;8.60;4.40;;;;;;;;;;5414650;26;20018;-61
2024/04/09 03:03:35;;;;;;;9.65;4.65;;;;;;;;;;5435408;26;20501;-60
2024/04/09 03:06:08;;;;;;;12.20;5.65;;;;;;;;;;5412184;26;20470;-59
2024/04/09 03:08:35;;;;;;;14.00;6.30;;;;;;;;;;5442590;26;20018;-58
2024/04/09 03:11:01;;;;;;;14.60;5.47;;;;;;;;;;5403864;26;20019;-59
2024/04/09 03:13:27;;;;;;;10.65;5.70;;;;;;;;;;5417964;26;20476;-59
2024/04/09 03:15:52;;;;;;;11.10;5.03;;;;;;;;;;5422641;26;20046;-59
2024/04/09 03:18:18;;;;;;;10.60;5.10;;;;;;;;;;5423031;26;20022;-57
2024/04/09 03:20:44;;;;;;;12.15;4.63;;;;;;;;;;5427395;26;20379;-59
2024/04/09 03:23:10;;;;;;;8.43;4.40;;;;;;;;;;5428986;26;20007;-61
2024/04/09 03:25:35;;;;;;;10.38;4.43;;;;;;;;;;5437259;26;20407;-58
2024/04/09 03:28:01;;;;;;;9.10;4.18;;;;;;;;;;5433677;26;20088;-60
2024/04/09 03:30:27;;;;;;;8.15;4.60;;;;;;;;;;5416908;26;20018;-61
2024/04/09 03:32:53;;;;;;;6.90;4.50;;;;;;;;;;5442037;26;20018;-60
2024/04/09 03:35:19;;;;;;;8.00;4.80;;;;;;;;;;5434824;26;20087;-56
2024/04/09 03:37:47;;;;;;;7.65;4.40;;;;;;;;;;5443833;26;20007;-61
2024/04/09 03:40:13;;;;;;;8.33;4.40;;;;;;;;;;5440023;26;20071;-61
2024/04/09 03:42:40;;;;;;;7.72;4.28;;;;;;;;;;5443803;26;20221;-56
2024/04/09 03:45:09;;;;;;;12.80;4.90;;;;;;;;;;5431755;26;20007;-58
2024/04/09 03:47:35;;;;;;;7.88;4.40;;;;;;;;;;5410655;26;20007;-58
2024/04/09 03:50:01;;;;;;;6.50;4.60;;;;;;;;;;5414656;26;20011;-60
2024/04/09 03:52:27;;;;;;;7.15;4.55;;;;;;;;;;5445812;26;20462;-59
2024/04/09 03:54:53;;;;;;;7.07;4.43;;;;;;;;;;5443066;26;20040;-59
2024/04/09 03:57:19;;;;;;;6.80;4.32;;;;;;;;;;5434676;26;20007;-60
2024/04/09 03:59:44;;;;;;;9.05;4.28;;;;;;;;;;5429477;26;20011;-62
2024/04/09 04:02:10;;;;;;;8.00;4.25;;;;;;;;;;5403842;26;20035;-60
2024/04/09 04:04:36;;;;;;;5.80;4.32;;;;;;;;;;5434907;26;20011;-60
2024/04/09 04:07:01;;;;;;;6.30;4.13;;;;;;;;;;5391701;26;20011;-58
2024/04/09 04:09:27;;;;;;;7.88;4.40;;;;;;;;;;5409419;26;20011;-59
2024/04/09 04:11:53;;;;;;;8.57;4.18;;;;;;;;;;5404323;26;20019;-59
2024/04/09 04:14:19;;;;;;;9.18;4.82;;;;;;;;;;5434183;26;20014;-59
2024/04/09 04:16:45;;;;;;;9.00;4.72;;;;;;;;;;5403650;26;20002;-54
2024/04/09 04:19:13;;;;;;;8.00;4.13;;;;;;;;;;5424319;26;20021;-61
2024/04/09 04:21:39;;;;;;;8.52;4.70;;;;;;;;;;5368091;26;20011;-57
2024/04/09 04:24:05;;;;;;;7.22;3.90;;;;;;;;;;5382743;26;20107;-61
2024/04/09 04:26:31;;;;;;;8.10;4.57;;;;;;;;;;5393209;26;20004;-61
2024/04/09 04:28:59;;;;;;;6.28;3.83;;;;;;;;;;5433019;26;20022;-59
2024/04/09 04:31:26;;;;;;;10.45;4.70;;;;;;;;;;5403746;26;20003;-53
2024/04/09 04:33:52;;;;;;;9.07;5.05;;;;;;;;;;5441353;26;20114;-60
2024/04/09 04:36:19;;;;;;;11.38;4.60;;;;;;;;;;5431201;26;20088;-56
2024/04/09 04:38:47;;;;;;;10.52;4.90;;;;;;;;;;5392048;26;20009;-55
2024/04/09 04:41:12;;;;;;;9.98;5.15;;;;;;;;;;5439587;26;20018;-57
2024/04/09 04:43:39;;;;;;;8.55;4.45;;;;;;;;;;5441123;26;20015;-61
2024/04/09 04:46:06;;;;;;;9.52;4.78;;;;;;;;;;5440652;26;20856;-56
2024/04/09 04:48:32;;;;;;;9.82;4.78;;;;;;;;;;5431538;26;20493;-57
2024/04/09 04:50:57;;;;;;;7.75;4.75;;;;;;;;;;5439553;26;20015;-57
2024/04/09 04:53:23;;;;;;;7.95;4.70;;;;;;;;;;5419889;26;20023;-56
2024/04/09 04:55:50;;;;;;;8.85;4.70;;;;;;;;;;5442364;26;20435;-59
2024/04/09 04:58:16;;;;;;;7.32;4.80;;;;;;;;;;5435331;26;20007;-57
2024/04/09 05:00:42;;;;;;;11.32;4.53;;;;;;;;;;5399645;26;20007;-56
2024/04/09 05:03:10;;;;;;;8.77;4.53;;;;;;;;;;5442331;26;20116;-57
2024/04/09 05:05:36;;;;;;;9.75;4.47;;;;;;;;;;5411211;26;20008;-55
2024/04/09 05:08:02;;;;;;;8.20;4.50;;;;;;;;;;5442293;26;20006;-53
2024/04/09 05:10:28;;;;;;;9.48;4.63;;;;;;;;;;5421385;26;20480;-56
2024/04/09 05:12:54;;;;;;;8.13;5.10;;;;;;;;;;5431117;26;20158;-53
2024/04/09 05:15:20;;;;;;;10.32;4.72;;;;;;;;;;5409515;26;20511;-52
2024/04/09 05:17:46;;;;;;;7.10;3.42;;;;;;;;;;5438317;26;20015;-55
2024/04/09 05:20:14;;;;;;;13.70;4.22;;;;;;;;;;5425908;26;20020;-56
2024/04/09 05:22:41;;;;;;;11.55;4.53;;;;;;;;;;5381557;26;20006;-55
2024/04/09 05:25:08;;;;;;;12.80;4.88;;;;;;;;;;5438523;26;20021;-58
2024/04/09 05:27:34;;;;;;;13.32;4.35;;;;;;;;;;5444447;26;20013;-55
2024/04/09 05:30:00;;;;;;;8.13;4.07;;;;;;;;;;5405919;26;20021;-56
2024/04/09 05:32:29;;;;;;;7.30;4.25;;;;;;;;;;5435366;26;20014;-55
2024/04/09 05:34:55;;;;;;;13.77;4.72;;;;;;;;;;5413782;26;20083;-54
2024/04/09 05:37:22;;;;;;;9.27;4.15;;;;;;;;;;5431877;26;20015;-53
2024/04/09 05:39:48;;;;;;;11.02;4.63;;;;;;;;;;5395951;26;20006;-53
2024/04/09 05:42:14;;;;;;;10.45;4.63;;;;;;;;;;5421235;26;20012;-56
2024/04/09 05:44:40;;;;;;;8.43;4.15;;;;;;;;;;5380466;26;20060;-57
2024/04/09 05:47:06;;;;;;;6.57;3.80;;;;;;;;;;5437801;26;20006;-53
2024/04/09 05:49:33;;;;;;;10.65;4.38;;;;;;;;;;5443599;26;20603;-53
2024/04/09 05:51:59;;;;;;;7.72;3.72;;;;;;;;;;5434494;26;20051;-52
2024/04/09 05:54:25;;;;;;;6.50;3.60;;;;;;;;;;5392821;26;20019;-55
2024/04/09 05:56:51;;;;;;;7.35;4.07;;;;;;;;;;5406840;26;20051;-53
2024/04/09 05:59:17;;;;;;;7.57;4.10;;;;;;;;;;5400337;26;20379;-57
2024/04/09 06:01:43;;;;;;;11.30;4.75;;;;;;;;;;5375967;26;20004;-53
2024/04/09 06:04:09;;;;;;;6.10;3.50;;;;;;;;;;5406160;26;20131;-55
2024/04/09 06:06:35;;;;;;;6.22;3.63;;;;;;;;;;5381760;26;20546;-56
2024/04/09 06:09:01;;;;;;;10.18;4.03;;;;;;;;;;5418487;26;20002;-55
2024/04/09 06:11:27;;;;;;;9.23;4.00;;;;;;;;;;5382737;26;20034;-53
2024/04/09 06:13:53;;;;;;;8.23;4.20;;;;;;;;;;5433192;26;21112;-56
2024/04/09 06:16:18;;;;;;;13.65;5.05;;;;;;;;;;5443575;26;20494;-53
2024/04/09 06:18:44;;;;;;;9.45;4.57;;;;;;;;;;5445048;26;20011;-52
2024/04/09 06:21:10;;;;;;;8.20;4.35;;;;;;;;;;5420241;26;20578;-61
2024/04/09 06:23:35;;;;;;;5.82;3.30;;;;;;;;;;5427340;26;20018;-57
2024/04/09 06:26:02;;;;;;;11.02;4.53;;;;;;;;;;5430482;26;20012;-56
2024/04/09 06:28:28;;;;;;;8.15;3.58;;;;;;;;;;5431856;26;20083;-55
2024/04/09 06:30:53;;;;;;;10.60;4.28;;;;;;;;;;5435369;26;20482;-59
2024/04/09 06:33:19;;;;;;;11.73;4.07;;;;;;;;;;5443274;26;20478;-54
2024/04/09 06:35:45;;;;;;;8.20;3.50;;;;;;;;;;5423785;26;20003;-54
2024/04/09 06:38:11;;;;;;;9.63;4.05;;;;;;;;;;5374945;26;20082;-54
2024/04/09 06:40:37;;;;;;;10.65;4.10;;;;;;;;;;5377571;26;20008;-56
2024/04/09 06:43:03;;;;;;;9.18;3.35;;;;;;;;;;5383324;26;20019;-53
2024/04/09 06:45:28;;;;;;;6.70;3.78;;;;;;;;;;5399393;26;20043;-54
2024/04/09 06:47:54;;;;;;;8.20;3.90;;;;;;;;;;5379148;26;20366;-55
2024/04/09 06:50:20;;;;;;;8.32;4.32;;;;;;;;;;5408706;26;20007;-50
2024/04/09 06:52:46;;;;;;;8.32;3.70;;;;;;;;;;5410276;26;20042;-55
2024/04/09 06:55:12;;;;;;;8.98;3.95;;;;;;;;;;5389350;26;20008;-56
2024/04/09 06:57:38;;;;;;;7.72;3.85;;;;;;;;;;5430845;26;20011;-55
2024/04/09 07:00:04;;;;;;;11.57;3.88;;;;;;;;;;5373326;26;20016;-58
2024/04/09 07:02:31;;;;;;;7.28;4.18;;;;;;;;;;5372781;26;20019;-51
2024/04/09 07:04:57;;;;;;;9.77;3.92;;;;;;;;;;5373279;26;20028;-55
2024/04/09 07:07:23;;;;;;;8.77;4.32;;;;;;;;;;5374553;26;20004;-53
2024/04/09 07:09:49;;;;;;;10.20;4.32;;;;;;;;;;5376183;26;20103;-54
2024/04/09 07:12:15;;;;;;;10.02;5.03;;;;;;;;;;5373111;26;20094;-56
2024/04/09 07:14:41;;;;;;;7.40;4.03;;;;;;;;;;5375919;26;20035;-52
2024/04/09 07:17:06;;;;;;;9.63;3.83;;;;;;;;;;5374750;26;20015;-50
2024/04/09 07:19:32;;;;;;;7.85;3.35;;;;;;;;;;5374554;26;20014;-52
2024/04/09 07:21:58;;;;;;;6.32;3.60;;;;;;;;;;5374457;26;20012;-52
2024/04/09 07:24:23;;;;;;;9.10;3.75;;;;;;;;;;5374185;26;20016;-52
2024/04/09 07:26:49;;;;;;;10.80;4.43;;;;;;;;;;5393216;26;20011;-53
2024/04/09 07:29:15;;;;;;;12.13;4.45;;;;;;;;;;5378777;26;20066;-51
2024/04/09 07:31:41;;;;;;;9.85;4.18;;;;;;;;;;5378363;26;20543;-57
2024/04/09 07:34:06;;;;;;;11.18;5.22;;;;;;;;;;5407111;26;20011;-57
2024/04/09 07:36:33;;;;;;;15.68;4.97;;;;;;;;;;5391001;26;20528;-54
2024/04/09 07:38:59;;;;;;;14.63;4.80;;;;;;;;;;5442015;26;20019;-55
2024/04/09 07:41:25;;;;;;;9.73;4.40;;;;;;;;;;5389446;26;20019;-56
2024/04/09 07:43:52;;;;;;;11.45;4.40;;;;;;;;;;5419087;26;20048;-57
2024/04/09 07:46:18;;;;;;;12.98;4.30;;;;;;;;;;5394902;26;20007;-56
2024/04/09 07:48:44;;;;;;;10.57;4.57;;;;;;;;;;5434839;26;20007;-58
2024/04/09 07:51:11;;;;;;;11.55;4.97;;;;;;;;;;5429925;26;20535;-56
2024/04/09 07:53:38;;;;;;;11.95;4.32;;;;;;;;;;5401414;26;20014;-56
2024/04/09 07:56:08;;;;;;;16.95;4.47;;;;;;;;;;5443065;26;20018;-55
2024/04/09 07:58:34;;;;;;;14.98;5.32;;;;;;;;;;5442938;26;20011;-58
2024/04/09 08:01:02;;;;;;;9.32;4.18;;;;;;;;;;5412242;26;20010;-55
2024/04/09 08:03:27;;;;;;;10.18;3.67;;;;;;;;;;5423981;26;20006;-57
2024/04/09 08:05:53;;;;;;;11.20;3.67;;;;;;;;;;5402251;26;20013;-55
2024/04/09 08:08:19;;;;;;;8.63;3.22;;;;;;;;;;5411934;26;20043;-54
2024/04/09 08:10:44;;;;;;;7.50;2.20;;;;;;;;;;5412738;26;20095;-63
2024/04/09 08:13:10;;;;;;;10.30;3.15;;;;;;;;;;5428968;26;20777;-60
2024/04/09 08:15:36;;;;;;;7.18;2.85;;;;;;;;;;5409284;26;20446;-53
2024/04/09 08:18:03;;;;;;;11.90;2.97;;;;;;;;;;5413203;26;20007;-52
2024/04/09 08:20:28;;;;;;;7.93;2.80;;;;;;;;;;5435391;26;20363;-54
2024/04/09 08:22:54;;;;;;;12.10;3.00;;;;;;;;;;5420512;26;20011;-54
2024/04/09 08:25:20;;;;;;;7.78;2.60;;;;;;;;;;5432262;26;20466;-54
2024/04/09 08:27:46;;;;;;;11.23;3.22;;;;;;;;;;5430554;26;20475;-56
2024/04/09 08:30:13;;;;;;;16.42;3.63;;;;;;;;;;5434266;26;20013;-52
2024/04/09 08:32:39;;;;;;;7.93;3.05;;;;;;;;;;5428555;26;20018;-55
2024/04/09 08:35:05;;;;;;;10.10;2.95;;;;;;;;;;5425535;26;20042;-54
2024/04/09 08:37:31;;;;;;;16.02;3.38;;;;;;;;;;5438311;26;20006;-51
2024/04/09 08:39:57;;;;;;;7.82;3.00;;;;;;;;;;5444162;26;20377;-55
2024/04/09 08:42:23;;;;;;;12.77;3.28;;;;;;;;;;5438164;26;20011;-53
2024/04/09 08:44:51;;;;;;;6.43;2.90;;;;;;;;;;5429195;26;20014;-55
2024/04/09 08:47:20;;;;;;;6.28;2.75;;;;;;;;;;5426916;26;20014;-55
2024/04/09 08:49:49;;;;;;;5.47;3.00;;;;;;;;;;5408032;26;20011;-56
2024/04/09 08:52:17;;;;;;;8.50;3.20;;;;;;;;;;5424732;26;20017;-60
2024/04/09 08:54:43;;;;;;;9.02;3.10;;;;;;;;;;5432861;26;20661;-60
2024/04/09 08:57:09;;;;;;;11.90;3.35;;;;;;;;;;5427140;26;20017;-57
2024/04/09 08:59:35;;;;;;;13.27;3.72;;;;;;;;;;5404308;26;20023;-57
2024/04/09 09:02:09;;;;;;;9.75;3.92;;;;;;;;;;5431751;26;20014;-61
2024/04/09 09:04:36;;;;;;;7.85;3.10;;;;;;;;;;5439463;26;20362;-57
2024/04/09 09:07:14;;;;;;;9.25;3.17;;;;;;;;;;5427254;26;20010;-56
2024/04/09 09:09:41;;;;;;;6.95;3.30;;;;;;;;;;5403238;26;20012;-56
2024/04/09 09:12:07;;;;;;;7.63;2.92;;;;;;;;;;5416915;26;20604;-58
2024/04/09 09:14:33;;;;;;;6.05;2.70;;;;;;;;;;5438745;26;20081;-57
2024/04/09 09:17:11;;;;;;;7.03;3.00;;;;;;;;;;5423516;26;20378;-55
2024/04/09 09:19:36;;;;;;;9.15;2.97;;;;;;;;;;5443566;26;20442;-56
2024/04/09 09:22:07;;;;;;;9.05;3.13;;;;;;;;;;5439733;26;20010;-55
2024/04/09 09:24:36;;;;;;;6.47;2.75;;;;;;;;;;5434749;26;20026;-60
2024/04/09 09:27:13;;;;;;;11.52;3.40;;;;;;;;;;5363082;26;20050;-55
2024/04/09 09:29:39;;;;;;;6.68;2.83;;;;;;;;;;5366239;26;20316;-62
2024/04/09 09:32:05;;;;;;;13.70;3.30;;;;;;;;;;5407404;26;20006;-55
2024/04/09 09:34:40;;;;;;;10.30;3.28;;;;;;;;;;5381940;26;20007;-54
2024/04/09 09:37:10;;;;;;;7.38;2.95;;;;;;;;;;5439608;26;20007;-57
2024/04/09 09:39:37;;;;;;;9.75;3.00;;;;;;;;;;5429678;26;20004;-57
2024/04/09 09:42:06;;;;;;;6.90;2.80;;;;;;;;;;5428121;26;20547;-52
2024/04/09 09:44:36;;;;;;;10.68;3.42;;;;;;;;;;5444170;26;19999;-55
2024/04/09 09:47:03;;;;;;;10.25;4.07;;;;;;;;;;5378120;26;20078;-56
2024/04/09 09:49:29;;;;;;;10.20;3.33;;;;;;;;;;5421031;26;20022;-57
2024/04/09 09:51:58;;;;;;;9.93;3.30;;;;;;;;;;5438262;26;19999;-55
2024/04/09 09:54:24;;;;;;;12.55;3.40;;;;;;;;;;5390446;26;20012;-57
2024/04/09 09:56:54;;;;;;;7.80;3.40;;;;;;;;;;5408893;26;20014;-55
2024/04/09 09:59:21;;;;;;;11.57;3.45;;;;;;;;;;5388393;26;20010;-53
2024/04/09 10:01:48;;;;;;;8.20;4.07;;;;;;;;;;5399122;26;20013;-56
2024/04/09 10:04:15;;;;;;;14.82;4.22;;;;;;;;;;5437385;26;20018;-54
2024/04/09 10:06:41;;;;;;;10.88;4.32;;;;;;;;;;5413675;26;20628;-56
2024/04/09 10:09:07;;;;;;;9.05;3.60;;;;;;;;;;5434495;26;20007;-54
2024/04/09 10:11:45;;;;;;;10.82;3.80;;;;;;;;;;5387108;26;20030;-55
2024/04/09 10:14:21;;;;;;;9.02;4.07;;;;;;;;;;5446132;26;20017;-53
2024/04/09 10:16:47;;;;;;;14.07;4.25;;;;;;;;;;5443923;26;20030;-55
2024/04/09 10:19:14;;;;;;;11.20;4.03;;;;;;;;;;5444525;26;20095;-52
2024/04/09 10:21:40;;;;;;;14.25;3.90;;;;;;;;;;5435997;26;19995;-55
2024/04/09 10:24:08;;;;;;;12.35;4.85;;;;;;;;;;5433833;26;20060;-59
2024/04/09 10:26:33;;;;;;;6.75;3.85;;;;;;;;;;5414217;26;20010;-55
2024/04/09 10:29:03;;;;;;;10.10;4.28;;;;;;;;;;5386868;26;20008;-53
2024/04/09 10:31:29;;;;;;;7.43;3.83;;;;;;;;;;5429247;26;20369;-58
2024/04/09 10:34:00;;;;;;;12.25;3.83;;;;;;;;;;5421023;26;20008;-55
2024/04/09 10:36:27;;;;;;;10.88;4.40;;;;;;;;;;5436313;26;20011;-55
2024/04/09 10:38:53;;;;;;;13.43;3.80;;;;;;;;;;5437273;26;20387;-56
2024/04/09 10:41:19;;;;;;;9.55;4.38;;;;;;;;;;5435312;26;20726;-56
2024/04/09 10:43:46;;;;;;;11.60;4.35;;;;;;;;;;5441956;26;20079;-54
2024/04/09 10:46:12;;;;;;;10.38;4.38;;;;;;;;;;5420011;26;20006;-57
2024/04/09 10:48:39;;;;;;;6.32;3.92;;;;;;;;;;5376133;26;20008;-56
2024/04/09 10:51:06;;;;;;;7.30;4.38;;;;;;;;;;5417329;26;20010;-56
2024/04/09 10:53:34;;;;;;;9.30;4.28;;;;;;;;;;5437244;26;19999;-56
2024/04/09 10:56:02;;;;;;;9.18;4.38;;;;;;;;;;5439396;26;20003;-56
2024/04/09 10:58:28;;;;;;;10.43;3.55;;;;;;;;;;5443849;26;20002;-54
2024/04/09 11:00:57;;;;;;;7.13;3.60;;;;;;;;;;5406358;26;19996;-58
2024/04/09 11:03:23;;;;;;;13.40;4.72;;;;;;;;;;5419407;26;19998;-55
2024/04/09 11:05:52;;;;;;;8.23;4.20;;;;;;;;;;5444131;26;19999;-54
2024/04/09 11:08:18;;;;;;;;;;;;;;;;;;5438563;26;20007;-55
2024/04/09 11:10:44;;;;;;;9.55;4.38;;;;;;;;;;5398362;26;19996;-55
2024/04/09 11:13:10;;;;;;;7.50;4.38;;;;;;;;;;5417951;26;20005;-52
2024/04/09 11:15:38;;;;;;;7.18;4.45;;;;;;;;;;5444090;26;20002;-57
2024/04/09 11:18:08;;;;;;;8.55;4.38;;;;;;;;;;5443720;26;20006;-55
2024/04/09 11:20:33;;;;;;;8.68;4.18;;;;;;;;;;5438207;26;20085;-56
2024/04/09 11:23:00;;;;;;;6.65;3.92;;;;;;;;;;5444216;26;20007;-58
2024/04/09 11:25:26;;;;;;;10.88;4.45;;;;;;;;;;5434707;26;20083;-58
2024/04/09 11:27:52;;;;;;;8.73;4.22;;;;;;;;;;5375544;26;20008;-55
2024/04/09 11:30:26;;;;;;;9.52;4.95;;;;;;;;;;5411442;26;19998;-58
2024/04/09 11:32:54;;;;;;;6.35;3.28;;;;;;;;;;5441287;26;19999;-54
2024/04/09 11:35:30;;;;;;;9.82;4.90;;;;;;;;;;5431388;26;20007;-56
2024/04/09 11:37:57;;;;;;;8.52;4.10;;;;;;;;;;5408838;26;20005;-56
2024/04/09 11:40:23;;;;;;;9.38;4.38;;;;;;;;;;5319527;26;20004;-56
2024/04/09 11:42:50;;;;;;;6.38;4.22;;;;;;;;;;5443352;26;19998;-57
2024/04/09 11:45:19;;;;;;;8.00;4.57;;;;;;;;;;5440020;26;20007;-55
2024/04/09 11:47:45;;;;;;;11.95;4.57;;;;;;;;;;5443113;26;20014;-55
2024/04/09 11:50:11;;;;;;;9.77;5.28;;;;;;;;;;5437128;26;20624;-56
2024/04/09 11:52:37;;;;;;;11.77;5.20;;;;;;;;;;5401018;26;20041;-58
2024/04/09 11:55:02;;;;;;;11.00;5.45;;;;;;;;;;5407801;26;20007;-57
2024/04/09 11:57:28;;;;;;;11.30;4.95;;;;;;;;;;5443165;26;20079;-57
2024/04/09 11:59:54;;;;;;;9.27;6.00;;;;;;;;;;5422739;26;20508;-62
2024/04/09 12:02:19;;;;;;;9.95;5.15;;;;;;;;;;5416835;26;20411;-59
2024/04/09 12:04:45;;;;;;;14.18;5.60;;;;;;;;;;5442370;26;20363;-56
2024/04/09 12:07:13;;;;;;;9.27;5.33;;;;;;;;;;5397778;26;20570;-58
2024/04/09 12:09:39;;;;;;;8.77;5.43;;;;;;;;;;5419168;26;20389;-58
2024/04/09 12:12:08;;;;;;;11.57;5.82;;;;;;;;;;5367154;26;20019;-58
2024/04/09 12:14:37;;;;;;;12.27;5.88;;;;;;;;;;5430434;26;20069;-58
2024/04/09 12:17:02;;;;;;;;;;;;;;;;;;5426331;26;20007;-55
2024/04/09 12:19:28;;;;;;;11.57;6.05;;;;;;;;;;5442628;26;20450;-56
2024/04/09 12:21:54;;;;;;;8.07;5.45;;;;;;;;;;5415281;26;20006;-57
2024/04/09 12:24:19;;;;;;;7.25;5.32;;;;;;;;;;5432210;26;20462;-56
2024/04/09 12:26:45;;;;;;;10.93;5.75;;;;;;;;;;5442335;26;20466;-60
2024/04/09 12:29:14;;;;;;;7.43;5.38;;;;;;;;;;5385399;26;20021;-56
2024/04/09 12:31:39;;;;;;;10.32;5.40;;;;;;;;;;5405463;26;20008;-59
2024/04/09 12:34:05;;;;;;;11.35;5.60;;;;;;;;;;5433354;26;20007;-59
2024/04/09 12:36:31;;;;;;;16.15;5.72;;;;;;;;;;5418714;26;20588;-57
2024/04/09 12:38:57;;;;;;;12.45;5.82;;;;;;;;;;5349102;26;20007;-58
2024/04/09 12:41:23;;;;;;;10.23;5.72;;;;;;;;;;5425872;26;20076;-54
2024/04/09 12:43:49;;;;;;;13.07;5.88;;;;;;;;;;5433439;26;20012;-57
2024/04/09 12:46:14;;;;;;;9.88;6.25;;;;;;;;;;5442364;26;20002;-57
2024/04/09 12:48:40;;;;;;;10.23;5.47;;;;;;;;;;5442421;26;20003;-58
2024/04/09 12:51:06;;;;;;;10.68;5.68;;;;;;;;;;5439240;26;20008;-60
2024/04/09 12:53:31;;;;;;;12.35;5.72;;;;;;;;;;5434883;26;20359;-57
2024/04/09 12:55:57;;;;;;;12.10;5.43;;;;;;;;;;5427807;26;20477;-57
2024/04/09 12:58:23;;;;;;;9.18;5.28;;;;;;;;;;5429722;26;20077;-56
2024/04/09 13:00:49;;;;;;;11.50;5.18;;;;;;;;;;5420689;26;20025;-56
2024/04/09 13:03:14;;;;;;;12.20;5.13;;;;;;;;;;5439768;26;20681;-54
2024/04/09 13:05:41;;;;;;;9.60;5.57;;;;;;;;;;5413042;26;20008;-56
2024/04/09 13:08:07;;;;;;;11.15;5.93;;;;;;;;;;5410868;26;20022;-57
2024/04/09 13:10:33;;;;;;;9.32;6.10;;;;;;;;;;5391794;26;20024;-55
2024/04/09 13:12:59;;;;;;;12.80;5.72;;;;;;;;;;5404327;26;20018;-55
2024/04/09 13:15:26;;;;;;;16.55;6.50;;;;;;;;;;5411620;26;20007;-56
2024/04/09 13:17:52;;;;;;;10.45;5.43;;;;;;;;;;5428735;26;20004;-54
2024/04/09 13:20:17;;;;;;;10.52;5.63;;;;;;;;;;5416288;26;20047;-56
2024/04/09 13:22:43;;;;;;;7.90;5.65;;;;;;;;;;5440097;26;20039;-54
2024/04/09 13:25:09;;;;;;;12.88;5.40;;;;;;;;;;5441868;26;20061;-56
2024/04/09 13:27:35;;;;;;;10.48;5.60;;;;;;;;;;5431839;26;20051;-58
2024/04/09 13:30:01;;;;;;;11.90;5.88;;;;;;;;;;5438831;26;20363;-54
2024/04/09 13:32:29;;;;;;;12.35;6.18;;;;;;;;;;5407951;26;20003;-56
2024/04/09 13:34:55;;;;;;;10.40;5.82;;;;;;;;;;5438717;26;20032;-55
2024/04/09 13:37:21;;;;;;;11.20;6.00;;;;;;;;;;5435298;26;20389;-58
2024/04/09 13:39:46;;;;;;;12.20;5.88;;;;;;;;;;5440864;26;20014;-53
2024/04/09 13:42:13;;;;;;;13.38;6.13;;;;;;;;;;5439398;26;20051;-55
2024/04/09 13:44:39;;;;;;;19.15;6.35;;;;;;;;;;5413386;26;20477;-61
2024/04/09 13:47:05;;;;;;;9.77;5.50;;;;;;;;;;5436638;26;20004;-54
2024/04/09 13:49:31;;;;;;;12.88;5.35;;;;;;;;;;5442437;26;20003;-56
2024/04/09 13:51:57;;;;;;;9.85;5.75;;;;;;;;;;5433111;26;20003;-53
2024/04/09 13:54:22;;;;;;;12.55;5.93;;;;;;;;;;5445091;26;20841;-54
2024/04/09 13:56:48;;;;;;;11.55;5.63;;;;;;;;;;5441901;26;20601;-55
2024/04/09 13:59:14;;;;;;;9.93;5.43;;;;;;;;;;5429683;26;20370;-54
2024/04/09 14:01:41;;;;;;;12.27;5.90;;;;;;;;;;5420149;26;20003;-53
2024/04/09 14:04:07;;;;;;;16.98;6.25;;;;;;;;;;5447373;26;20014;-56
2024/04/09 14:06:33;;;;;;;10.90;6.00;;;;;;;;;;5442451;26;20014;-55
2024/04/09 14:08:59;;;;;;;14.10;5.78;;;;;;;;;;5423936;26;20004;-56
2024/04/09 14:11:24;;;;;;;15.55;5.47;;;;;;;;;;5403272;26;20032;-55
2024/04/09 14:13:50;;;;;;;12.35;6.20;;;;;;;;;;5447601;26;20019;-57
2024/04/09 14:16:16;;;;;;;10.35;5.93;;;;;;;;;;5445703;26;20355;-57
2024/04/09 14:18:42;;;;;;;10.48;5.80;;;;;;;;;;5433073;26;20088;-57
2024/04/09 14:21:08;;;;;;;11.88;5.90;;;;;;;;;;5444802;26;20003;-55
2024/04/09 14:23:35;;;;;;;14.02;6.13;;;;;;;;;;5445403;26;20002;-55
2024/04/09 14:26:01;;;;;;;14.95;6.18;;;;;;;;;;5416624;26;20093;-55
2024/04/09 14:28:27;;;;;;;13.38;5.15;;;;;;;;;;5445443;26;20003;-57
2024/04/09 14:30:53;;;;;;;12.05;5.35;;;;;;;;;;5428603;26;20013;-53
2024/04/09 14:33:18;;;;;;;13.93;6.78;;;;;;;;;;5441672;26;20023;-54